createdAt,value
2022-08-11T00:01:14.760Z,78.70
2022-08-11T00:03:48.427Z,79.00
2022-08-11T00:06:24.655Z,78.70
2022-08-11T00:08:56.331Z,79.10
2022-08-11T00:11:35.109Z,78.40
2022-08-11T00:14:05.220Z,78.90
2022-08-11T00:16:34.915Z,79.00
2022-08-11T00:19:04.454Z,79.10
2022-08-11T00:22:04.222Z,79.20
2022-08-11T00:24:53.332Z,78.80
2022-08-11T00:27:32.515Z,81.50
2022-08-11T00:30:01.334Z,82.10
2022-08-11T00:32:31.879Z,81.00
2022-08-11T00:35:54.098Z,81.90
2022-08-11T00:37:53.892Z,82.20
2022-08-11T00:40:29.450Z,82.50
2022-08-11T00:43:05.733Z,84.10
2022-08-11T00:45:43.993Z,84.30
2022-08-11T00:48:29.960Z,85.20
2022-08-11T00:51:14.745Z,84.00
2022-08-11T00:53:53.688Z,83.70
2022-08-11T00:57:36.770Z,84.30
2022-08-11T01:00:15.355Z,87.30
2022-08-11T01:02:58.126Z,83.70
2022-08-11T01:06:18.646Z,85.20
2022-08-11T01:09:21.007Z,86.00
2022-08-11T01:12:30.554Z,85.40
2022-08-11T01:15:35.276Z,88.30
2022-08-11T01:18:43.141Z,89.60
2022-08-11T01:21:37.562Z,89.60
2022-08-11T01:24:41.847Z,88.60
2022-08-11T01:27:48.869Z,90.20
2022-08-11T01:30:58.178Z,89.10
2022-08-11T01:34:08.572Z,90.50
2022-08-11T01:37:03.163Z,90.20
2022-08-11T01:40:06.167Z,90.60
2022-08-11T01:43:19.371Z,85.10
2022-08-11T01:45:54.248Z,89.20
2022-08-11T01:48:35.516Z,90.80
2022-08-11T01:51:16.978Z,90.40
2022-08-11T01:53:56.069Z,91.20
2022-08-11T01:56:48.510Z,91.20
2022-08-11T01:59:21.774Z,91.10
2022-08-11T02:02:46.136Z,88.60
2022-08-11T02:05:46.281Z,90.20
2022-08-11T02:08:32.976Z,90.80
2022-08-11T02:11:35.168Z,90.50
2022-08-11T02:14:22.679Z,90.10
2022-08-11T02:17:16.635Z,89.90
2022-08-11T02:20:11.168Z,89.80
2022-08-11T02:23:07.539Z,89.40
2022-08-11T02:25:42.582Z,89.00
2022-08-11T02:28:23.936Z,88.70
2022-08-11T02:32:24.829Z,88.60
2022-08-11T02:34:21.345Z,88.50
2022-08-11T02:36:57.320Z,88.60
2022-08-11T02:39:33.120Z,90.60
2022-08-11T02:42:35.979Z,92.00
2022-08-11T02:45:31.014Z,92.70
2022-08-11T02:48:24.355Z,93.20
2022-08-11T02:51:05.923Z,91.20
2022-08-11T02:53:50.961Z,91.50
2022-08-11T02:56:44.798Z,92.80
2022-08-11T02:59:46.354Z,93.40
2022-08-11T03:02:41.772Z,93.10
2022-08-11T03:05:25.293Z,93.20
2022-08-11T03:08:18.781Z,92.70
2022-08-11T03:11:15.993Z,93.00
2022-08-11T03:14:10.175Z,92.70
2022-08-11T03:16:48.398Z,92.10
2022-08-11T03:19:25.831Z,92.30
2022-08-11T03:22:06.317Z,92.10
2022-08-11T03:24:59.279Z,92.00
2022-08-11T03:27:40.640Z,91.90
2022-08-11T03:30:17.012Z,91.60
2022-08-11T03:33:17.099Z,91.70
2022-08-11T03:36:00.909Z,91.80
2022-08-11T03:38:45.373Z,93.60
2022-08-11T03:42:02.671Z,93.40
2022-08-11T03:44:41.012Z,94.20
2022-08-11T03:47:55.174Z,94.60
2022-08-11T03:51:06.242Z,94.50
2022-08-11T03:53:53.155Z,94.90
2022-08-11T03:56:50.882Z,94.70
2022-08-11T03:59:58.317Z,94.50
2022-08-11T04:02:50.792Z,94.20
2022-08-11T04:05:43.661Z,93.70
2022-08-11T04:08:53.896Z,92.90
2022-08-11T04:11:50.719Z,92.90
2022-08-11T04:15:02.216Z,92.80
2022-08-11T04:18:05.189Z,92.60
2022-08-11T04:20:59.535Z,92.20
2022-08-11T04:24:34.486Z,92.30
2022-08-11T04:27:36.948Z,92.70
2022-08-11T04:30:12.121Z,92.40
2022-08-11T04:33:15.589Z,92.40
2022-08-11T04:35:54.739Z,92.30
2022-08-11T04:38:43.378Z,92.20
2022-08-11T04:42:02.877Z,92.20
2022-08-11T04:45:13.349Z,91.10
2022-08-11T04:48:24.459Z,90.40
2022-08-11T04:51:38.897Z,92.40
2022-08-11T04:54:43.385Z,91.40
2022-08-11T04:57:38.551Z,95.30
2022-08-11T05:00:27.230Z,96.50
2022-08-11T05:03:31.980Z,97.50
2022-08-11T05:06:32.979Z,98.00
2022-08-11T05:09:30.019Z,97.50
2022-08-11T05:12:21.994Z,96.50
2022-08-11T05:15:11.064Z,96.20
2022-08-11T05:18:14.438Z,95.70
2022-08-11T05:21:06.652Z,94.70
2022-08-11T05:24:00.675Z,92.80
2022-08-11T05:26:49.908Z,91.90
2022-08-11T05:29:54.426Z,91.00
2022-08-11T05:32:42.707Z,90.70
2022-08-11T05:35:18.418Z,91.20
2022-08-11T05:38:39.028Z,92.70
2022-08-11T05:41:30.330Z,93.20
2022-08-11T05:44:21.810Z,93.30
2022-08-11T05:47:09.517Z,93.90
2022-08-11T05:49:57.893Z,90.90
2022-08-11T05:52:46.858Z,86.10
2022-08-11T05:55:35.038Z,84.40
2022-08-11T05:58:07.148Z,83.70
2022-08-11T06:00:44.125Z,80.90
2022-08-11T06:03:13.445Z,78.50
2022-08-11T06:05:44.379Z,77.30
2022-08-11T06:08:15.097Z,77.30
2022-08-11T06:10:45.840Z,76.10
2022-08-11T06:13:18.972Z,76.30
2022-08-11T06:18:37.923Z,75.00
2022-08-11T06:21:12.448Z,75.50
2022-08-11T06:23:42.669Z,76.00
2022-08-11T06:26:11.967Z,76.00
2022-08-11T06:28:45.516Z,74.60
2022-08-11T06:31:16.408Z,74.50
2022-08-11T06:33:57.208Z,73.20
2022-08-11T06:36:34.399Z,74.00
2022-08-11T06:39:19.043Z,73.30
2022-08-11T06:41:53.174Z,71.10
2022-08-11T06:44:32.418Z,71.20
2022-08-11T06:47:09.693Z,72.70
2022-08-11T06:49:58.531Z,71.10
2022-08-11T06:52:44.027Z,70.80
2022-08-11T06:55:57.562Z,71.50
2022-08-11T06:58:44.463Z,69.90
2022-08-11T07:01:19.829Z,69.00
2022-08-11T07:03:58.433Z,69.90
2022-08-11T07:06:50.479Z,69.10
2022-08-11T07:10:14.565Z,69.00
2022-08-11T07:13:45.663Z,68.90
2022-08-11T07:17:28.407Z,68.50
2022-08-11T07:20:36.084Z,66.60
2022-08-11T07:23:25.043Z,65.80
2022-08-11T07:26:12.944Z,66.10
2022-08-11T07:28:59.255Z,66.60
2022-08-11T07:31:32.756Z,66.10
2022-08-11T07:34:17.425Z,65.20
2022-08-11T07:36:52.487Z,64.90
2022-08-11T07:39:23.645Z,65.00
2022-08-11T07:41:54.692Z,65.90
2022-08-11T07:44:30.802Z,65.90
2022-08-11T07:47:19.754Z,64.50
2022-08-11T07:50:08.263Z,64.30
2022-08-11T07:52:40.755Z,64.60
2022-08-11T07:55:13.894Z,64.20
2022-08-11T07:58:16.294Z,63.70
2022-08-11T08:01:10.719Z,63.70
2022-08-11T08:04:04.663Z,63.50
2022-08-11T08:06:52.084Z,62.40
2022-08-11T08:09:40.571Z,62.10
2022-08-11T08:12:27.611Z,61.00
2022-08-11T08:15:15.116Z,61.40
2022-08-11T08:18:20.556Z,60.80
2022-08-11T08:20:50.121Z,60.30
2022-08-11T08:23:33.326Z,60.00
2022-08-11T08:26:26.608Z,60.00
2022-08-11T08:29:16.096Z,59.00
2022-08-11T08:31:45.582Z,58.80
2022-08-11T08:34:15.633Z,58.20
2022-08-11T08:36:45.868Z,57.90
2022-08-11T08:39:16.601Z,57.90
2022-08-11T08:41:48.059Z,57.70
2022-08-11T08:44:37.962Z,56.90
2022-08-11T08:47:09.096Z,57.20
2022-08-11T08:49:41.780Z,57.30
2022-08-11T08:52:26.321Z,57.50
2022-08-11T08:55:05.543Z,56.70
2022-08-11T08:57:38.984Z,56.50
2022-08-11T09:00:13.769Z,56.20
2022-08-11T09:02:44.470Z,56.30
2022-08-11T09:05:13.764Z,56.80
2022-08-11T09:07:43.403Z,56.60
2022-08-11T09:10:12.862Z,56.20
2022-08-11T09:12:43.663Z,56.60
2022-08-11T09:15:15.150Z,56.30
2022-08-11T09:17:51.676Z,56.10
2022-08-11T09:20:23.927Z,56.10
2022-08-11T09:24:08.720Z,56.10
2022-08-11T09:26:20.803Z,56.20
2022-08-11T09:28:53.486Z,55.90
2022-08-11T09:31:23.254Z,55.70
2022-08-11T09:33:55.531Z,55.70
2022-08-11T09:36:42.549Z,55.70
2022-08-11T09:39:31.159Z,55.70
2022-08-11T09:42:04.431Z,55.40
2022-08-11T09:44:50.660Z,55.40
2022-08-11T09:47:24.495Z,55.40
2022-08-11T09:50:00.627Z,54.90
2022-08-11T09:52:33.468Z,54.70
2022-08-11T09:55:11.412Z,54.60
2022-08-11T09:57:58.953Z,54.70
2022-08-11T10:00:32.971Z,54.40
2022-08-11T10:03:02.869Z,54.70
2022-08-11T10:05:49.370Z,54.70
2022-08-11T10:08:19.999Z,54.40
2022-08-11T10:10:49.169Z,54.40
2022-08-11T10:14:30.260Z,54.60
2022-08-11T10:16:15.043Z,55.10
2022-08-11T10:18:49.734Z,55.40
2022-08-11T10:21:28.455Z,54.70
2022-08-11T10:24:15.365Z,54.60
2022-08-11T10:26:58.981Z,54.60
2022-08-11T10:29:51.183Z,54.90
2022-08-11T10:32:57.668Z,54.90
2022-08-11T10:35:29.497Z,54.30
2022-08-11T10:38:15.685Z,54.20
2022-08-11T10:41:10.904Z,53.80
2022-08-11T10:44:01.621Z,53.50
2022-08-11T10:46:48.182Z,53.30
2022-08-11T10:49:18.813Z,52.50
2022-08-11T10:52:06.400Z,52.40
2022-08-11T10:54:53.576Z,51.90
2022-08-11T10:57:40.925Z,51.60
2022-08-11T11:00:14.440Z,51.40
2022-08-11T11:02:43.805Z,51.10
2022-08-11T11:05:17.627Z,50.80
2022-08-11T11:07:56.311Z,51.00
2022-08-11T11:10:26.332Z,51.00
2022-08-11T11:13:16.490Z,51.10
2022-08-11T11:16:05.498Z,51.30
2022-08-11T11:18:37.271Z,51.40
2022-08-11T11:21:15.197Z,51.00
2022-08-11T11:23:52.042Z,51.30
2022-08-11T11:26:33.087Z,50.90
2022-08-11T11:29:30.150Z,51.40
2022-08-11T11:32:17.614Z,50.70
2022-08-11T11:35:19.542Z,51.20
2022-08-11T11:38:03.498Z,51.40
2022-08-11T11:40:33.981Z,51.50
2022-08-11T11:43:02.834Z,51.70
2022-08-11T11:45:31.505Z,51.80
2022-08-11T11:48:01.623Z,50.50
2022-08-11T11:50:34.588Z,50.60
2022-08-11T11:53:07.457Z,50.50
2022-08-11T11:55:37.384Z,51.40
2022-08-11T11:58:24.819Z,51.30
2022-08-11T12:01:12.483Z,51.10
2022-08-11T12:03:41.638Z,51.40
2022-08-11T12:06:12.334Z,52.00
2022-08-11T12:08:43.381Z,52.40
2022-08-11T12:11:31.632Z,51.80
2022-08-11T12:14:01.893Z,51.40
2022-08-11T12:16:35.751Z,52.00
2022-08-11T12:19:08.027Z,51.50
2022-08-11T12:21:38.033Z,51.60
2022-08-11T12:24:28.496Z,52.40
2022-08-11T12:27:17.684Z,52.50
2022-08-11T12:32:38.949Z,52.00
2022-08-11T12:35:09.605Z,52.00
2022-08-11T12:37:41.481Z,52.30
2022-08-11T12:40:42.783Z,52.20
2022-08-11T12:43:41.356Z,52.30
2022-08-11T12:46:12.820Z,52.00
2022-08-11T12:49:04.290Z,52.60
2022-08-11T12:52:11.048Z,51.70
2022-08-11T12:54:51.894Z,51.50
2022-08-11T12:57:50.257Z,51.50
2022-08-11T13:00:38.314Z,51.90
2022-08-11T13:03:27.051Z,51.80
2022-08-11T13:05:58.399Z,51.80
2022-08-11T13:08:29.783Z,51.80
2022-08-11T13:11:19.204Z,52.00
2022-08-11T13:13:57.023Z,51.80
2022-08-11T13:16:29.213Z,51.80
2022-08-11T13:18:58.951Z,51.10
2022-08-11T13:21:28.499Z,51.30
2022-08-11T13:24:01.918Z,51.20
2022-08-11T13:26:47.254Z,51.00
2022-08-11T13:29:24.724Z,50.80
2022-08-11T13:31:58.440Z,50.40
2022-08-11T13:34:29.049Z,50.40
2022-08-11T13:37:00.929Z,50.30
2022-08-11T13:39:32.572Z,50.20
2022-08-11T13:42:03.918Z,49.40
2022-08-11T13:44:37.292Z,48.90
2022-08-11T13:47:09.139Z,48.60
2022-08-11T13:49:40.479Z,48.70
2022-08-11T13:52:13.445Z,49.10
2022-08-11T13:54:43.578Z,49.70
2022-08-11T13:58:09.142Z,48.10
2022-08-11T14:00:24.993Z,47.70
2022-08-11T14:02:58.405Z,48.00
2022-08-11T14:05:29.203Z,47.70
2022-08-11T14:08:02.496Z,48.30
2022-08-11T14:10:35.048Z,48.40
2022-08-11T14:13:42.486Z,49.10
2022-08-11T14:16:23.254Z,48.90
2022-08-11T14:19:01.680Z,48.40
2022-08-11T14:21:55.002Z,49.00
2022-08-11T14:24:24.355Z,48.60
2022-08-11T14:26:54.211Z,48.00
2022-08-11T14:29:24.628Z,48.00
2022-08-11T14:31:57.666Z,47.30
2022-08-11T14:34:30.037Z,47.10
2022-08-11T14:37:04.063Z,46.80
2022-08-11T14:39:36.322Z,46.60
2022-08-11T14:42:25.047Z,46.60
2022-08-11T14:45:18.409Z,46.30
2022-08-11T14:47:52.161Z,46.30
2022-08-11T14:50:24.204Z,46.30
2022-08-11T14:52:55.262Z,45.70
2022-08-11T14:55:44.437Z,45.60
2022-08-11T14:58:16.253Z,45.50
2022-08-11T15:00:46.004Z,46.00
2022-08-11T15:03:16.370Z,46.30
2022-08-11T15:05:56.304Z,45.90
2022-08-11T15:08:47.391Z,45.30
2022-08-11T15:11:35.638Z,45.70
2022-08-11T15:14:06.314Z,45.80
2022-08-11T15:16:53.424Z,46.60
2022-08-11T15:19:23.751Z,47.10
2022-08-11T15:22:10.075Z,47.80
2022-08-11T15:24:39.541Z,47.70
2022-08-11T15:27:31.155Z,47.20
2022-08-11T15:30:32.195Z,47.00
2022-08-11T15:33:25.947Z,46.40
2022-08-11T15:36:15.007Z,46.70
2022-08-11T15:38:55.402Z,46.80
2022-08-11T15:41:58.512Z,46.80
2022-08-11T15:45:03.711Z,46.90
2022-08-11T15:47:41.662Z,47.10
2022-08-11T15:50:16.515Z,47.20
2022-08-11T15:52:53.185Z,47.70
2022-08-11T15:55:24.005Z,48.20
2022-08-11T15:58:13.204Z,48.90
2022-08-11T16:01:04.255Z,49.20
2022-08-11T16:04:09.014Z,48.80
2022-08-11T16:06:47.525Z,48.70
2022-08-11T16:09:24.241Z,50.40
2022-08-11T16:11:55.876Z,53.40
2022-08-11T16:14:43.127Z,54.50
2022-08-11T16:17:13.805Z,55.70
2022-08-11T16:19:45.625Z,55.40
2022-08-11T16:22:16.331Z,56.00
2022-08-11T16:27:05.717Z,56.40
2022-08-11T16:27:42.777Z,57.20
2022-08-11T16:30:13.863Z,57.40
2022-08-11T16:32:48.155Z,57.50
2022-08-11T16:35:36.938Z,57.90
2022-08-11T16:38:24.708Z,58.30
2022-08-11T16:40:56.202Z,59.00
2022-08-11T16:43:43.759Z,59.30
2022-08-11T16:46:32.704Z,59.10
2022-08-11T16:49:02.994Z,59.10
2022-08-11T16:51:32.948Z,59.30
2022-08-11T16:54:05.804Z,59.20
2022-08-11T16:56:40.163Z,59.70
2022-08-11T16:59:15.899Z,60.10
2022-08-11T17:01:47.894Z,60.20
2022-08-11T17:04:39.149Z,60.70
2022-08-11T17:07:41.960Z,61.10
2022-08-11T17:10:52.881Z,61.60
2022-08-11T17:13:33.082Z,62.50
2022-08-11T17:16:12.253Z,62.10
2022-08-11T17:18:50.132Z,61.80
2022-08-11T17:21:22.827Z,62.20
2022-08-11T17:23:55.438Z,62.20
2022-08-11T17:26:49.365Z,62.20
2022-08-11T17:29:22.332Z,62.60
2022-08-11T17:32:09.475Z,63.00
2022-08-11T17:34:58.905Z,63.30
2022-08-11T17:37:30.703Z,63.80
2022-08-11T17:40:01.923Z,63.80
2022-08-11T17:42:52.727Z,64.10
2022-08-11T17:45:41.744Z,64.40
2022-08-11T17:48:27.429Z,64.60
2022-08-11T17:50:59.344Z,65.00
2022-08-11T17:54:17.049Z,65.50
2022-08-11T17:56:55.142Z,65.80
2022-08-11T17:59:48.856Z,66.00
2022-08-11T18:02:38.311Z,67.90
2022-08-11T18:05:12.779Z,67.80
2022-08-11T18:08:01.061Z,69.60
2022-08-11T18:10:50.309Z,72.20
2022-08-11T18:13:38.971Z,71.20
2022-08-11T18:16:26.694Z,71.70
2022-08-11T18:19:15.282Z,72.10
2022-08-11T18:22:12.968Z,73.60
2022-08-11T18:25:06.831Z,74.60
2022-08-11T18:27:54.544Z,73.90
2022-08-11T18:30:41.874Z,75.40
2022-08-11T18:33:56.784Z,76.10
2022-08-11T18:36:42.498Z,76.60
2022-08-11T18:39:31.476Z,76.20
2022-08-11T18:42:29.131Z,77.50
2022-08-11T18:45:20.205Z,79.20
2022-08-11T18:48:11.373Z,78.10
2022-08-11T18:51:29.677Z,78.20
2022-08-11T18:54:10.539Z,78.50
2022-08-11T18:56:56.758Z,78.90
2022-08-11T18:59:45.536Z,79.90
2022-08-11T19:02:33.827Z,79.60
2022-08-11T19:06:32.204Z,78.50
2022-08-11T19:08:47.834Z,78.60
2022-08-11T19:11:36.489Z,79.30
2022-08-11T19:14:30.102Z,77.50
2022-08-11T19:17:44.587Z,78.10
2022-08-11T19:20:30.048Z,78.30
2022-08-11T19:23:16.711Z,80.00
2022-08-11T19:26:03.996Z,81.00
2022-08-11T19:28:53.916Z,81.30
2022-08-11T19:31:44.737Z,81.60
2022-08-11T19:34:34.511Z,81.20
2022-08-11T19:37:24.318Z,80.60
2022-08-11T19:40:12.345Z,78.80
2022-08-11T19:42:59.961Z,78.60
2022-08-11T19:45:52.705Z,78.70
2022-08-11T19:48:40.757Z,78.70
2022-08-11T19:51:28.487Z,79.70
2022-08-11T19:54:15.748Z,81.60
2022-08-11T19:57:02.958Z,83.80
2022-08-11T19:59:51.360Z,83.60
2022-08-11T20:02:42.559Z,84.80
2022-08-11T20:05:29.137Z,86.30
2022-08-11T20:08:18.618Z,86.50
2022-08-11T20:11:07.043Z,84.50
2022-08-11T20:13:56.130Z,84.00
2022-08-11T20:16:43.237Z,83.40
2022-08-11T20:19:55.301Z,83.20
2022-08-11T20:22:39.064Z,82.80
2022-08-11T20:25:27.096Z,82.50
2022-08-11T20:28:14.462Z,82.70
2022-08-11T20:31:02.619Z,83.60
2022-08-11T20:33:49.500Z,84.00
2022-08-11T20:36:36.672Z,84.70
2022-08-11T20:39:24.138Z,84.50
2022-08-11T20:42:11.933Z,84.00
2022-08-11T20:44:59.695Z,84.10
2022-08-11T20:47:59.508Z,84.10
2022-08-11T20:50:48.094Z,83.60
2022-08-11T20:53:39.140Z,83.40
2022-08-11T20:56:28.584Z,83.10
2022-08-11T20:59:18.384Z,82.70
2022-08-11T21:02:09.387Z,81.90
2022-08-11T21:04:57.430Z,81.70
2022-08-11T21:07:57.275Z,82.30
2022-08-11T21:10:51.736Z,82.60
2022-08-11T21:13:41.231Z,82.30
2022-08-11T21:16:32.019Z,82.10
2022-08-11T21:20:00.534Z,82.20
2022-08-11T21:22:35.771Z,82.70
2022-08-11T21:25:26.182Z,82.70
2022-08-11T21:28:17.930Z,83.00
2022-08-11T21:31:04.968Z,83.90
2022-08-11T21:33:51.550Z,84.90
2022-08-11T21:36:40.427Z,83.80
2022-08-11T21:39:28.278Z,83.30
2022-08-11T21:42:15.407Z,82.80
2022-08-11T21:45:06.101Z,82.60
2022-08-11T21:48:00.864Z,83.60
2022-08-11T21:50:47.494Z,83.50
2022-08-11T21:53:34.281Z,83.40
2022-08-11T21:56:21.825Z,83.90
2022-08-11T21:59:12.989Z,82.80
2022-08-11T22:02:00.857Z,82.90
2022-08-11T22:04:49.703Z,83.90
2022-08-11T22:07:39.524Z,83.50
2022-08-11T22:10:41.415Z,83.20
2022-08-11T22:13:30.423Z,83.00
2022-08-11T22:16:17.248Z,84.30
2022-08-11T22:19:06.051Z,84.70
2022-08-11T22:22:01.328Z,86.30
2022-08-11T22:24:51.796Z,85.70
2022-08-11T22:27:38.247Z,87.00
2022-08-11T22:30:25.958Z,86.60
2022-08-11T22:33:15.202Z,87.20
2022-08-11T22:36:05.267Z,85.70
2022-08-11T22:38:53.687Z,84.60
2022-08-11T22:41:40.757Z,84.30
2022-08-11T22:44:26.975Z,84.40
2022-08-11T22:47:14.789Z,83.80
2022-08-11T22:50:07.442Z,84.60
2022-08-11T22:52:57.030Z,85.40
2022-08-11T22:55:44.414Z,87.90
2022-08-11T22:58:32.853Z,89.60
2022-08-11T23:01:19.424Z,90.20
2022-08-11T23:04:06.167Z,90.20
2022-08-11T23:06:53.666Z,90.40
2022-08-11T23:09:43.093Z,90.30
2022-08-11T23:12:31.179Z,90.40
2022-08-11T23:15:19.537Z,90.80
2022-08-11T23:18:06.356Z,90.70
2022-08-11T23:20:55.030Z,90.50
2022-08-11T23:23:43.368Z,90.50
2022-08-11T23:26:31.421Z,90.80
2022-08-11T23:29:18.663Z,92.20
2022-08-11T23:32:05.996Z,92.70
2022-08-11T23:35:04.343Z,93.50
2022-08-11T23:38:03.664Z,93.40
2022-08-11T23:40:49.953Z,92.60
2022-08-11T23:43:41.411Z,92.70
2022-08-11T23:46:27.575Z,92.60
2022-08-11T23:49:17.790Z,93.10
2022-08-11T23:52:04.627Z,92.10
2022-08-11T23:54:52.065Z,91.80
2022-08-11T23:57:38.266Z,91.20
